Time,TemperatureF,DewpointF,PressureIn,WindDirection,WindDirectionDegrees,WindSpeedMPH,WindSpeedGustMPH,Humidity,HourlyPrecipIn,Conditions,Clouds,dailyrainin,SoftwareType,DateUTC
2013-02-15 00:04:00,28.4,25.0,29.99,SW,215,0.0,0.0,86,0.00,,,0.00,weatherlink.com 1.10,2013-02-15 05:04:00,
2013-02-15 00:19:00,28.3,25.0,29.99,SW,215,0.0,0.0,87,0.00,,,0.00,weatherlink.com 1.10,2013-02-15 05:19:00,
2013-02-15 00:34:00,28.0,25.0,29.99,SW,215,0.0,0.0,87,0.00,,,0.00,weatherlink.com 1.10,2013-02-15 05:34:00,
2013-02-15 00:49:00,27.6,25.0,29.99,SW,215,0.0,0.0,88,0.00,,,0.00,weatherlink.com 1.10,2013-02-15 05:49:00,
2013-02-15 01:04:00,26.9,24.0,29.99,SW,215,0.0,0.0,88,0.00,,,0.00,weatherlink.com 1.10,2013-02-15 06:04:00,
2013-02-15 01:19:00,26.6,24.0,30.00,SW,215,0.0,0.0,89,0.00,,,0.00,weatherlink.com 1.10,2013-02-15 06:19:00,
2013-02-15 01:34:00,26.5,24.0,30.00,SW,215,0.0,0.0,90,0.00,,,0.00,weatherlink.com 1.10,2013-02-15 06:34:00,
2013-02-15 01:49:00,26.0,24.0,30.00,SW,215,0.0,0.0,90,0.00,,,0.00,weatherlink.com 1.10,2013-02-15 06:49:00,
2013-02-15 02:04:00,25.7,23.0,30.00,SW,215,0.0,0.0,90,0.00,,,0.00,weatherlink.com 1.10,2013-02-15 07:04:00,
2013-02-15 02:19:00,25.0,23.0,30.00,SW,215,0.0,0.0,90,0.00,,,0.00,weatherlink.com 1.10,2013-02-15 07:19:00,
2013-02-15 02:34:00,25.3,23.0,29.99,SW,215,0.0,0.0,92,0.00,,,0.00,weatherlink.com 1.10,2013-02-15 07:34:00,
2013-02-15 02:49:00,25.9,24.0,30.00,SW,215,0.0,0.0,92,0.00,,,0.00,weatherlink.com 1.10,2013-02-15 07:49:00,
2013-02-15 03:04:00,26.6,25.0,29.99,SW,215,0.0,0.0,93,0.00,,,0.00,weatherlink.com 1.10,2013-02-15 08:04:00,
2013-02-15 03:19:00,28.1,27.0,29.99,SW,214,0.0,0.0,94,0.00,,,0.00,weatherlink.com 1.10,2013-02-15 08:19:00,
2013-02-15 03:34:00,28.8,27.0,29.99,SW,215,0.0,0.0,93,0.00,,,0.00,weatherlink.com 1.10,2013-02-15 08:34:00,
2013-02-15 03:49:00,29.2,28.0,29.99,SW,215,0.0,0.0,93,0.00,,,0.00,weatherlink.com 1.10,2013-02-15 08:49:00,
2013-02-15 04:04:00,29.5,28.0,29.99,SW,215,0.0,0.0,93,0.00,,,0.00,weatherlink.com 1.10,2013-02-15 09:04:00,
2013-02-15 04:20:00,30.1,28.0,30.00,SW,214,0.0,0.0,93,0.00,,,0.00,weatherlink.com 1.10,2013-02-15 09:20:00,
2013-02-15 04:34:00,30.5,29.0,30.00,SW,215,0.0,0.0,93,0.00,,,0.00,weatherlink.com 1.10,2013-02-15 09:34:00,
2013-02-15 04:50:00,31.9,30.0,29.99,SSW,199,0.0,2.0,94,0.00,,,0.00,weatherlink.com 1.10,2013-02-15 09:50:00,
2013-02-15 05:04:00,31.7,30.0,30.00,SSW,199,0.0,0.0,93,0.00,,,0.00,weatherlink.com 1.10,2013-02-15 10:04:00,
2013-02-15 05:19:00,30.8,29.0,29.99,SSW,199,0.0,0.0,93,0.00,,,0.00,weatherlink.com 1.10,2013-02-15 10:19:00,
2013-02-15 05:34:00,29.6,28.0,30.00,SSW,198,0.0,0.0,92,0.00,,,0.00,weatherlink.com 1.10,2013-02-15 10:34:00,
2013-02-15 05:50:00,29.0,27.0,29.99,SSW,199,0.0,0.0,93,0.00,,,0.00,weatherlink.com 1.10,2013-02-15 10:50:00,
2013-02-15 06:04:00,28.5,27.0,29.99,SSW,198,0.0,0.0,93,0.00,,,0.00,weatherlink.com 1.10,2013-02-15 11:04:00,
2013-02-15 06:19:00,28.2,27.0,29.99,SSW,199,0.0,0.0,94,0.00,,,0.00,weatherlink.com 1.10,2013-02-15 11:19:00,
2013-02-15 06:34:00,28.5,27.0,29.99,SSW,198,0.0,0.0,94,0.00,,,0.00,weatherlink.com 1.10,2013-02-15 11:34:00,
2013-02-15 06:49:00,29.1,28.0,30.00,ESE,116,0.0,0.0,95,0.00,,,0.00,weatherlink.com 1.10,2013-02-15 11:49:00,
2013-02-15 07:04:00,31.2,30.0,30.00,SW,224,0.0,0.0,96,0.00,,,0.00,weatherlink.com 1.10,2013-02-15 12:04:00,
2013-02-15 07:19:00,32.3,31.0,30.01,SSW,195,0.0,2.0,96,0.00,,,0.00,weatherlink.com 1.10,2013-02-15 12:19:00,
2013-02-15 07:34:00,32.8,32.0,30.00,SSW,194,0.0,2.0,96,0.00,,,0.00,weatherlink.com 1.10,2013-02-15 12:34:00,
2013-02-15 07:50:00,33.2,32.0,30.00,SW,218,0.0,2.0,96,0.00,,,0.00,weatherlink.com 1.10,2013-02-15 12:50:00,
2013-02-15 08:05:00,33.7,33.0,30.00,SSE,153,0.0,1.0,96,0.00,,,0.00,weatherlink.com 1.10,2013-02-15 13:05:00,
2013-02-15 08:19:00,34.3,33.0,30.00,SSE,160,0.0,3.0,96,0.00,,,0.00,weatherlink.com 1.10,2013-02-15 13:19:00,
2013-02-15 08:35:00,35.2,34.0,30.00,South,188,1.0,4.0,95,0.00,,,0.00,weatherlink.com 1.10,2013-02-15 13:35:00,
2013-02-15 08:50:00,36.9,35.0,30.01,WSW,247,1.0,5.0,94,0.00,,,0.00,weatherlink.com 1.10,2013-02-15 13:50:00,
2013-02-15 09:05:00,38.8,36.0,30.01,SW,217,2.0,5.0,88,0.00,,,0.00,weatherlink.com 1.10,2013-02-15 14:05:00,
2013-02-15 09:20:00,40.5,36.0,30.01,SSW,196,0.0,4.0,83,0.00,,,0.00,weatherlink.com 1.10,2013-02-15 14:20:00,
2013-02-15 09:35:00,41.7,36.0,30.01,South,170,2.0,6.0,80,0.00,,,0.00,weatherlink.com 1.10,2013-02-15 14:35:00,
2013-02-15 09:50:00,42.5,36.0,30.01,WSW,247,1.0,5.0,79,0.00,,,0.00,weatherlink.com 1.10,2013-02-15 14:50:00,
2013-02-15 10:05:00,43.4,37.0,30.01,SE,141,1.0,7.0,77,0.00,,,0.00,weatherlink.com 1.10,2013-02-15 15:05:00,
2013-02-15 10:20:00,44.3,37.0,30.00,WSW,252,1.0,6.0,74,0.00,,,0.00,weatherlink.com 1.10,2013-02-15 15:20:00,
2013-02-15 10:35:00,45.2,36.0,30.00,SSE,161,2.0,5.0,71,0.00,,,0.00,weatherlink.com 1.10,2013-02-15 15:35:00,
2013-02-15 10:50:00,46.0,36.0,30.00,West,271,3.0,7.0,68,0.00,,,0.00,weatherlink.com 1.10,2013-02-15 15:50:00,
2013-02-15 11:05:00,46.8,36.0,30.00,SSW,195,5.0,8.0,66,0.00,,,0.00,weatherlink.com 1.10,2013-02-15 16:05:00,
2013-02-15 11:20:00,47.5,37.0,29.99,SW,217,4.0,9.0,66,0.00,,,0.00,weatherlink.com 1.10,2013-02-15 16:20:00,
2013-02-15 11:35:00,47.5,36.0,29.98,WSW,240,3.0,6.0,65,0.00,,,0.00,weatherlink.com 1.10,2013-02-15 16:35:00,
2013-02-15 11:51:00,48.5,36.0,29.97,SSE,162,2.0,6.0,63,0.00,,,0.00,weatherlink.com 1.10,2013-02-15 16:51:00,
2013-02-15 12:05:00,48.7,36.0,29.97,WNW,283,4.0,9.0,63,0.00,,,0.00,weatherlink.com 1.10,2013-02-15 17:05:00,
2013-02-15 12:20:00,49.1,36.0,29.96,ESE,113,1.0,9.0,62,0.00,,,0.00,weatherlink.com 1.10,2013-02-15 17:20:00,
2013-02-15 12:35:00,49.1,37.0,29.95,SSE,154,3.0,6.0,63,0.00,,,0.00,weatherlink.com 1.10,2013-02-15 17:35:00,
2013-02-15 12:50:00,49.1,37.0,29.95,ESE,122,1.0,10.0,63,0.00,,,0.00,weatherlink.com 1.10,2013-02-15 17:50:00,
2013-02-15 13:05:00,49.5,37.0,29.94,WSW,249,1.0,9.0,63,0.00,,,0.00,weatherlink.com 1.10,2013-02-15 18:05:00,
2013-02-15 13:21:00,49.3,37.0,29.94,West,264,3.0,6.0,64,0.00,,,0.00,weatherlink.com 1.10,2013-02-15 18:21:00,
2013-02-15 13:36:00,48.7,37.0,29.94,WSW,239,3.0,11.0,65,0.00,,,0.00,weatherlink.com 1.10,2013-02-15 18:36:00,
2013-02-15 13:51:00,48.3,37.0,29.94,West,268,2.0,11.0,66,0.00,,,0.00,weatherlink.com 1.10,2013-02-15 18:51:00,
2013-02-15 14:06:00,48.1,38.0,29.94,SW,231,3.0,9.0,67,0.00,,,0.00,weatherlink.com 1.10,2013-02-15 19:06:00,
2013-02-15 14:21:00,48.3,38.0,29.94,SSE,158,2.0,7.0,67,0.00,,,0.00,weatherlink.com 1.10,2013-02-15 19:21:00,
2013-02-15 14:36:00,48.5,38.0,29.93,SW,221,2.0,7.0,67,0.00,,,0.00,weatherlink.com 1.10,2013-02-15 19:36:00,
2013-02-15 14:51:00,48.2,38.0,29.93,South,183,3.0,4.0,67,0.00,,,0.00,weatherlink.com 1.10,2013-02-15 19:51:00,
2013-02-15 15:06:00,47.3,38.0,29.93,SSE,162,2.0,8.0,69,0.00,,,0.00,weatherlink.com 1.10,2013-02-15 20:06:00,
2013-02-15 15:21:00,47.0,37.0,29.92,South,169,4.0,7.0,69,0.00,,,0.00,weatherlink.com 1.10,2013-02-15 20:21:00,
2013-02-15 15:36:00,46.4,37.0,29.92,SW,215,1.0,8.0,70,0.00,,,0.00,weatherlink.com 1.10,2013-02-15 20:36:00,
2013-02-15 15:51:00,46.0,37.0,29.92,SE,136,2.0,8.0,71,0.00,,,0.00,weatherlink.com 1.10,2013-02-15 20:51:00,
2013-02-15 16:06:00,45.6,37.0,29.92,NW,309,2.0,7.0,72,0.00,,,0.00,weatherlink.com 1.10,2013-02-15 21:06:00,
2013-02-15 16:21:00,45.2,37.0,29.91,SSE,159,1.0,5.0,73,0.00,,,0.00,weatherlink.com 1.10,2013-02-15 21:21:00,
2013-02-15 16:36:00,44.5,37.0,29.92,South,169,1.0,3.0,74,0.00,,,0.00,weatherlink.com 1.10,2013-02-15 21:36:00,
2013-02-15 16:51:00,43.7,37.0,29.92,SSE,158,1.0,2.0,76,0.00,,,0.00,weatherlink.com 1.10,2013-02-15 21:51:00,
2013-02-15 17:06:00,43.1,36.0,29.92,SW,221,0.0,3.0,77,0.00,,,0.00,weatherlink.com 1.10,2013-02-15 22:06:00,
2013-02-15 17:21:00,42.3,36.0,29.92,WSW,245,1.0,2.0,79,0.00,,,0.00,weatherlink.com 1.10,2013-02-15 22:21:00,
2013-02-15 17:36:00,41.5,36.0,29.92,South,179,0.0,3.0,81,0.00,,,0.00,weatherlink.com 1.10,2013-02-15 22:36:00,
2013-02-15 17:51:00,40.8,36.0,29.93,South,181,0.0,3.0,83,0.00,,,0.00,weatherlink.com 1.10,2013-02-15 22:51:00,
2013-02-15 18:06:00,40.3,36.0,29.93,SSE,159,0.0,3.0,84,0.00,,,0.00,weatherlink.com 1.10,2013-02-15 23:06:00,
2013-02-15 18:21:00,39.7,36.0,29.93,SSW,199,1.0,3.0,85,0.00,,,0.00,weatherlink.com 1.10,2013-02-15 23:21:00,
2013-02-15 18:36:00,39.7,36.0,29.93,SSW,196,0.0,2.0,86,0.00,,,0.00,weatherlink.com 1.10,2013-02-15 23:36:00,
2013-02-15 18:51:00,39.5,36.0,29.93,SW,214,0.0,3.0,86,0.00,,,0.00,weatherlink.com 1.10,2013-02-15 23:51:00,
2013-02-15 19:06:00,39.1,36.0,29.93,SW,214,1.0,2.0,87,0.00,,,0.00,weatherlink.com 1.10,2013-02-16 00:06:00,
2013-02-15 19:21:00,38.8,35.0,29.93,SW,214,0.0,3.0,87,0.00,,,0.00,weatherlink.com 1.10,2013-02-16 00:21:00,
2013-02-15 19:36:00,38.4,35.0,29.93,SSW,211,1.0,2.0,88,0.00,,,0.00,weatherlink.com 1.10,2013-02-16 00:36:00,
2013-02-15 19:51:00,38.1,35.0,29.93,SSW,211,0.0,2.0,89,0.00,,,0.00,weatherlink.com 1.10,2013-02-16 00:51:00,
2013-02-15 20:06:00,37.7,35.0,29.93,South,191,0.0,2.0,90,0.00,,,0.00,weatherlink.com 1.10,2013-02-16 01:06:00,
2013-02-15 20:21:00,37.2,35.0,29.93,South,174,0.0,1.0,90,0.00,,,0.00,weatherlink.com 1.10,2013-02-16 01:21:00,
2013-02-15 20:36:00,37.0,35.0,29.93,SSW,208,0.0,2.0,92,0.00,,,0.00,weatherlink.com 1.10,2013-02-16 01:36:00,
2013-02-15 20:51:00,36.4,34.0,29.94,SSE,156,0.0,1.0,92,0.00,,,0.00,weatherlink.com 1.10,2013-02-16 01:51:00,
2013-02-15 21:06:00,35.7,34.0,29.94,SSE,155,0.0,0.0,92,0.00,,,0.00,weatherlink.com 1.10,2013-02-16 02:06:00,
2013-02-15 21:21:00,35.3,34.0,29.94,SSE,155,0.0,0.0,93,0.00,,,0.00,weatherlink.com 1.10,2013-02-16 02:21:00,
2013-02-15 21:36:00,34.9,33.0,29.94,SSE,155,0.0,0.0,93,0.00,,,0.00,weatherlink.com 1.10,2013-02-16 02:36:00,
2013-02-15 21:51:00,34.5,33.0,29.94,SSE,155,0.0,1.0,94,0.00,,,0.00,weatherlink.com 1.10,2013-02-16 02:51:00,
2013-02-15 22:06:00,34.4,33.0,29.93,SSE,155,0.0,0.0,94,0.00,,,0.00,weatherlink.com 1.10,2013-02-16 03:06:00,
2013-02-15 22:21:00,34.2,33.0,29.93,SSE,155,0.0,0.0,94,0.00,,,0.00,weatherlink.com 1.10,2013-02-16 03:21:00,
2013-02-15 22:36:00,34.1,33.0,29.93,SSE,155,0.0,0.0,95,0.00,,,0.00,weatherlink.com 1.10,2013-02-16 03:36:00,
2013-02-15 22:51:00,33.4,32.0,29.93,SSE,155,0.0,0.0,94,0.00,,,0.00,weatherlink.com 1.10,2013-02-16 03:51:00,
2013-02-15 23:06:00,32.8,31.0,29.93,SE,137,0.0,1.0,94,0.00,,,0.00,weatherlink.com 1.10,2013-02-16 04:06:00,
2013-02-15 23:21:00,32.6,31.0,29.93,SE,137,0.0,0.0,94,0.00,,,0.00,weatherlink.com 1.10,2013-02-16 04:21:00,
2013-02-15 23:36:00,31.9,30.0,29.93,SE,137,0.0,1.0,94,0.00,,,0.00,weatherlink.com 1.10,2013-02-16 04:36:00,
2013-02-15 23:51:00,31.3,30.0,29.93,SE,137,0.0,0.0,94,0.00,,,0.00,weatherlink.com 1.10,2013-02-16 04:51:00,